Time;durP1;ratioP1;P1;durP2;ratioP2;P2;SDS_P1;SDS_P2;PMS_P1;PMS_P2;Temp;Humidity;BMP_temperature;BMP_pressure;BME280_temperature;BME280_humidity;BME280_pressure;Samples;Min_cycle;Max_cycle;Signal;HPM_P1;HPM_P2
2023/10/18 00:08:36;;;;;;;7.03;6.25;;;;;;;22.72;47.33;101538.56;21151139;28;20036;-61
2023/10/18 00:18:38;;;;;;;7.13;6.20;;;;;;;22.72;47.02;101550.56;21163646;28;20043;-62
2023/10/18 00:28:40;;;;;;;10.32;7.00;;;;;;;22.68;46.93;101555.03;21164882;28;20051;-61
2023/10/18 00:38:41;;;;;;;8.63;6.28;;;;;;;22.72;47.08;101561.72;21173815;28;20040;-60
2023/10/18 00:48:44;;;;;;;7.57;6.07;;;;;;;22.66;47.02;101574.00;21148876;28;20056;-60
2023/10/18 00:58:47;;;;;;;5.40;4.90;;;;;;;22.73;46.95;101591.31;21088426;28;20035;-61
2023/10/18 01:08:56;;;;;;;6.82;5.72;;;;;;;22.67;47.26;101595.19;21163214;28;20047;-61
2023/10/18 01:18:57;;;;;;;5.80;5.15;;;;;;;22.72;47.15;101623.09;21170263;28;20032;-62
2023/10/18 01:29:03;;;;;;;7.50;5.05;;;;;;;22.72;46.89;101625.88;21134218;28;20093;-61
2023/10/18 01:39:20;;;;;;;5.30;4.80;;;;;;;22.71;47.13;101635.38;21168509;28;20028;-61
2023/10/18 01:49:25;;;;;;;6.20;4.75;;;;;;;22.71;47.19;101642.91;21168393;28;20044;-60
2023/10/18 01:59:27;;;;;;;5.78;4.38;;;;;;;22.71;46.87;101643.75;21166410;28;20441;-60
2023/10/18 02:09:48;;;;;;;4.60;4.20;;;;;;;22.71;46.97;101654.91;21165681;28;20516;-61
2023/10/18 02:19:50;;;;;;;4.28;3.85;;;;;;;22.60;47.14;101635.66;21164247;28;20044;-60
2023/10/18 02:29:52;;;;;;;5.95;4.30;;;;;;;22.71;46.86;101660.50;21163572;28;20058;-60
2023/10/18 02:40:07;;;;;;;4.38;3.47;;;;;;;22.69;46.94;101667.47;21131992;28;20093;-61
2023/10/18 02:50:08;;;;;;;3.60;3.30;;;;;;;22.72;47.10;101689.22;21077747;28;20052;-60
2023/10/18 03:00:11;;;;;;;4.53;3.63;;;;;;;22.69;47.10;101684.22;21161412;28;20096;-60
2023/10/18 03:10:32;;;;;;;3.42;3.13;;;;;;;22.71;47.21;101705.13;21151722;28;20043;-59
2023/10/18 03:20:39;;;;;;;3.33;2.92;;;;;;;22.73;47.16;101697.34;21154740;28;20040;-60
2023/10/18 03:30:44;;;;;;;6.35;3.40;;;;;;;22.74;47.32;101710.16;21127795;28;20048;-59
2023/10/18 03:40:57;;;;;;;5.93;3.58;;;;;;;22.77;47.77;101706.84;21152799;28;20101;-59
2023/10/18 03:51:00;;;;;;;4.85;3.42;;;;;;;22.77;47.55;101723.59;21158113;28;20475;-59
2023/10/18 04:01:01;;;;;;;6.20;3.33;;;;;;;22.73;47.57;101719.66;21166969;28;20024;-59
2023/10/18 04:11:07;;;;;;;4.72;3.60;;;;;;;22.75;47.57;101734.16;21167471;28;20035;-59
2023/10/18 04:21:15;;;;;;;4.10;3.13;;;;;;;22.75;47.53;101745.31;21126665;28;20044;-60
2023/10/18 04:31:21;;;;;;;6.27;3.23;;;;;;;22.77;47.50;101743.13;21172103;28;20085;-60
2023/10/18 05:01:36;;;;;;;4.22;2.95;;;;;;;22.77;47.54;101754.28;21167824;28;20024;-59
2023/10/18 05:11:47;;;;;;;5.68;3.08;;;;;;;22.74;47.62;101752.03;21168766;28;20047;-60
2023/10/18 05:21:51;;;;;;;6.13;2.90;;;;;;;22.78;47.65;101760.69;21169586;28;20085;-61
2023/10/18 05:32:13;;;;;;;5.32;3.05;;;;;;;22.75;47.63;101773.22;21160138;28;20020;-59
2023/10/18 05:42:20;;;;;;;3.38;2.45;;;;;;;22.77;47.72;101782.19;21083898;28;20044;-59
2023/10/18 05:52:36;;;;;;;3.80;2.73;;;;;;;22.77;47.92;101786.91;21164652;28;20459;-59
2023/10/18 06:02:37;;;;;;;4.65;2.60;;;;;;;22.74;47.98;101771.56;21165770;28;20039;-59
2023/10/18 06:12:49;;;;;;;3.53;2.22;;;;;;;22.78;47.93;101794.19;21165799;28;20100;-60
2023/10/18 06:23:09;;;;;;;2.22;2.00;;;;;;;22.75;48.17;101795.53;21162995;28;20047;-60
2023/10/18 06:33:18;;;;;;;2.70;1.98;;;;;;;22.76;48.00;101805.59;21164094;28;20031;-59
2023/10/18 06:43:20;;;;;;;2.45;1.83;;;;;;;22.78;48.12;101800.59;21163003;28;20042;-58
2023/10/18 06:53:21;;;;;;;3.42;1.98;;;;;;;22.75;48.00;101801.13;21140076;28;20475;-59
2023/10/18 07:03:27;;;;;;;2.60;2.10;;;;;;;22.76;48.00;101796.38;21138964;28;20073;-59
2023/10/18 07:13:46;;;;;;;3.13;1.98;;;;;;;22.75;47.95;101789.97;21108296;28;20067;-59
2023/10/18 07:23:53;;;;;;;1.75;1.65;;;;;;;22.73;48.02;101797.78;21113455;28;20109;-58
2023/10/18 07:33:54;;;;;;;2.37;1.90;;;;;;;22.75;48.05;101791.91;21159468;28;20028;-59
2023/10/18 07:43:57;;;;;;;3.20;1.55;;;;;;;22.74;47.89;101791.09;21159388;28;20122;-59
2023/10/18 07:53:59;;;;;;;1.83;1.73;;;;;;;22.74;48.20;101801.41;21159653;28;20394;-60
2023/10/18 08:04:01;;;;;;;1.88;1.48;;;;;;;22.74;47.87;101810.63;21158457;28;20552;-60
2023/10/18 08:14:16;;;;;;;1.92;1.40;;;;;;;22.73;47.58;101808.94;21158925;28;20040;-60
2023/10/18 08:24:20;;;;;;;1.88;1.58;;;;;;;22.59;47.74;101788.25;21157695;28;20482;-60
2023/10/18 08:34:23;;;;;;;2.05;1.17;;;;;;;22.73;47.58;101831.28;21148141;28;20040;-58
2023/10/18 08:44:27;;;;;;;2.10;1.75;;;;;;;22.73;47.73;101831.28;21161100;28;20028;-60
2023/10/18 08:54:30;;;;;;;1.95;1.40;;;;;;;22.74;47.57;101838.53;21157827;28;20046;-59
2023/10/18 09:04:32;;;;;;;2.72;1.60;;;;;;;22.71;47.52;101847.44;21171014;28;20039;-59
2023/10/18 09:14:36;;;;;;;1.70;1.40;;;;;;;22.64;47.62;101832.91;21159306;28;20428;-59
2023/10/18 09:24:43;;;;;;;1.52;1.23;;;;;;;22.72;47.71;101854.69;21155498;28;20077;-59
2023/10/18 09:34:44;;;;;;;1.40;1.30;;;;;;;22.67;47.58;101843.50;21166121;28;20387;-59
2023/10/18 09:44:46;;;;;;;1.65;1.20;;;;;;;22.71;47.48;101858.59;21162516;28;20073;-59
2023/10/18 09:54:49;;;;;;;1.40;1.00;;;;;;;22.71;47.50;101864.16;21152105;28;20039;-60
2023/10/18 10:05:03;;;;;;;2.28;1.63;;;;;;;22.71;47.65;101857.75;21159014;28;20044;-60
2023/10/18 10:15:13;;;;;;;1.20;1.02;;;;;;;22.71;47.67;101866.13;21165408;28;20039;-59
2023/10/18 10:25:31;;;;;;;0.80;0.80;;;;;;;22.71;47.47;101883.69;21124102;28;20444;-61
2023/10/18 10:35:32;;;;;;;2.13;0.97;;;;;;;22.67;47.44;101888.13;21137009;28;20501;-60
2023/10/18 10:46:05;;;;;;;1.08;0.98;;;;;;;22.69;47.44;101902.66;21150050;28;20043;-60
2023/10/18 10:56:28;;;;;;;1.02;0.90;;;;;;;22.66;47.76;101907.94;21152687;28;20474;-58
2023/10/18 11:06:32;;;;;;;1.10;1.00;;;;;;;22.66;47.53;101903.19;21157318;28;20088;-58
2023/10/18 11:16:34;;;;;;;1.35;0.93;;;;;;;22.67;47.44;101913.25;21151256;28;20431;-59
2023/10/18 11:26:43;;;;;;;1.23;0.98;;;;;;;22.65;47.63;101918.25;21159340;28;20043;-59
2023/10/18 11:36:49;;;;;;;1.10;1.00;;;;;;;22.66;47.51;101931.09;21098567;28;20043;-59
2023/10/18 11:46:51;;;;;;;1.20;1.10;;;;;;;22.62;47.48;101934.69;21159029;28;20551;-59
2023/10/18 11:56:53;;;;;;;1.13;0.90;;;;;;;22.63;47.79;101940.00;21151996;28;20044;-60
2023/10/18 12:07:00;;;;;;;2.80;1.20;;;;;;;22.52;47.83;101943.84;21158424;28;20406;-59
2023/10/18 12:17:02;;;;;;;5.03;1.50;;;;;;;22.71;48.89;101972.16;21119407;28;20036;-60
2023/10/18 12:27:34;;;;;;;3.53;1.58;;;;;;;22.56;48.95;101964.50;21174481;28;20043;-59
2023/10/18 12:37:32;;;;;;;3.63;1.90;;;;;;;22.72;48.91;101999.78;21142691;28;20032;-60
2023/10/18 12:47:37;;;;;;;3.15;1.73;;;;;;;22.55;49.00;101974.00;21170257;28;20054;-59
2023/10/18 12:57:42;;;;;;;4.47;1.58;;;;;;;22.72;49.11;102008.13;21172927;28;20047;-58
2023/10/18 13:07:43;;;;;;;2.88;1.58;;;;;;;22.63;48.90;101992.16;21170382;28;20036;-59
2023/10/18 13:17:44;;;;;;;3.67;1.40;;;;;;;22.68;48.73;102012.59;21171554;28;20040;-59
2023/10/18 13:27:48;;;;;;;4.13;1.80;;;;;;;22.69;48.73;102014.28;21170742;28;20100;-61
2023/10/18 13:37:49;;;;;;;3.35;1.70;;;;;;;22.65;48.58;102018.72;21168988;28;20187;-61
2023/10/18 13:47:51;;;;;;;4.18;1.70;;;;;;;22.60;48.55;101999.13;21166757;28;20044;-60
2023/10/18 13:57:52;;;;;;;4.95;1.60;;;;;;;22.69;48.63;102019.84;21167504;28;20036;-60
2023/10/18 14:07:54;;;;;;;3.90;1.40;;;;;;;22.73;48.54;102031.34;21167373;28;20474;-60
2023/10/18 14:17:55;;;;;;;2.45;1.30;;;;;;;22.69;48.43;102024.59;21165902;28;20027;-60
2023/10/18 14:27:59;;;;;;;4.80;1.33;;;;;;;22.74;48.37;102028.25;21165355;28;20096;-60
2023/10/18 14:38:06;;;;;;;2.90;1.40;;;;;;;22.76;48.20;102022.41;21164407;28;20043;-60
2023/10/18 14:48:07;;;;;;;2.25;1.15;;;;;;;22.61;48.21;101992.44;21162409;28;20367;-59
2023/10/18 14:58:12;;;;;;;2.80;1.48;;;;;;;22.72;48.18;102010.94;21162260;28;20051;-59
2023/10/18 15:08:13;;;;;;;2.63;1.30;;;;;;;22.80;47.89;102015.19;21162274;28;20039;-60
2023/10/18 15:18:14;;;;;;;1.70;1.27;;;;;;;22.82;47.93;102012.97;21155726;28;20059;-60
2023/10/18 15:28:16;;;;;;;2.63;1.45;;;;;;;22.84;47.68;102007.97;21076848;28;20545;-59
2023/10/18 15:38:19;;;;;;;4.15;1.30;;;;;;;22.86;47.51;102028.06;21075894;28;20048;-60
2023/10/18 15:48:20;;;;;;;2.28;1.23;;;;;;;22.90;47.46;102022.81;21075660;28;20044;-60
2023/10/18 15:58:24;;;;;;;3.33;1.10;;;;;;;22.91;47.49;102005.81;21086025;28;20536;-58
2023/10/18 16:08:31;;;;;;;2.25;1.05;;;;;;;22.93;47.27;102000.81;21092784;28;20040;-61
2023/10/18 16:18:36;;;;;;;4.13;1.30;;;;;;;22.96;47.04;101991.91;21092049;28;20445;-60
2023/10/18 16:28:43;;;;;;;2.33;1.30;;;;;;;23.00;47.30;101978.22;21067793;28;20048;-59
2023/10/18 16:38:50;;;;;;;2.20;1.30;;;;;;;22.98;47.23;101958.13;21056331;28;20041;-59
2023/10/18 16:48:52;;;;;;;2.45;1.38;;;;;;;22.96;47.06;101930.47;21004106;28;20048;-59
2023/10/18 16:58:56;;;;;;;2.47;1.48;;;;;;;23.05;46.96;101944.78;21003448;28;20104;-59
2023/10/18 17:08:58;;;;;;;2.17;1.40;;;;;;;23.09;46.77;101943.09;21001286;28;20049;-59
2023/10/18 17:18:59;;;;;;;1.88;1.20;;;;;;;23.10;46.82;101916.88;21011798;28;20044;-58
2023/10/18 17:29:02;;;;;;;2.10;1.15;;;;;;;23.00;46.84;101892.56;21098492;28;20062;-59
2023/10/18 17:39:04;;;;;;;1.98;1.20;;;;;;;23.17;46.78;101897.91;21111443;28;20044;-58
2023/10/18 17:49:06;;;;;;;1.80;1.40;;;;;;;23.17;46.73;101891.47;21110206;28;20036;-58
2023/10/18 17:59:09;;;;;;;2.78;1.17;;;;;;;23.02;46.95;101855.97;21134576;28;20035;-58
2023/10/18 18:09:11;;;;;;;1.70;1.15;;;;;;;23.21;46.69;101871.13;21133798;28;20070;-59
2023/10/18 18:19:12;;;;;;;1.83;1.20;;;;;;;23.18;46.87;101871.66;21156192;28;20043;-59
2023/10/18 18:29:14;;;;;;;2.03;1.27;;;;;;;23.19;47.01;101878.94;21106817;28;20444;-60
2023/10/18 18:39:15;;;;;;;1.33;1.00;;;;;;;23.18;46.94;101860.47;21156320;28;20524;-59
2023/10/18 18:49:18;;;;;;;2.90;1.27;;;;;;;23.15;46.56;101875.00;21120248;28;20028;-60
2023/10/18 18:59:22;;;;;;;2.17;1.00;;;;;;;23.15;46.69;101866.63;21149197;28;20132;-60
2023/10/18 19:09:23;;;;;;;5.05;1.20;;;;;;;23.11;46.31;101862.72;21139786;28;20032;-58
2023/10/18 19:19:25;;;;;;;2.78;1.52;;;;;;;23.19;45.53;101864.16;21138224;28;20038;-59
2023/10/18 19:29:29;;;;;;;2.63;1.42;;;;;;;21.67;45.74;101645.56;21094433;28;20093;-60
2023/10/18 19:39:31;;;;;;;3.42;0.90;;;;;;;23.19;45.29;101845.44;21118717;28;20044;-59
2023/10/18 19:49:33;;;;;;;1.80;1.17;;;;;;;23.21;45.42;101848.78;21082890;28;20040;-59
2023/10/18 19:59:34;;;;;;;109.30;80.88;;;;;;;23.25;44.89;101849.91;21126169;28;20044;-59
2023/10/18 20:09:37;;;;;;;90.53;64.78;;;;;;;23.25;44.66;101849.91;21127559;28;20047;-60
2023/10/18 20:19:38;;;;;;;67.93;52.63;;;;;;;23.26;44.41;101853.53;21143616;28;20568;-59
2023/10/18 20:29:40;;;;;;;55.40;43.80;;;;;;;23.27;44.40;101853.25;21148532;28;20077;-58
2023/10/18 20:39:41;;;;;;;54.42;40.88;;;;;;;22.77;44.02;101771.03;21093471;28;20044;-59
2023/10/18 20:49:49;;;;;;;44.58;35.78;;;;;;;23.28;44.16;101849.38;21151770;28;20047;-60
2023/10/18 20:59:51;;;;;;;34.22;26.10;;;;;;;23.27;43.43;101842.06;21141195;27;20040;-59
2023/10/18 21:09:53;;;;;;;31.58;23.40;;;;;;;23.30;43.43;101849.91;21149490;28;20040;-59
2023/10/18 21:19:54;;;;;;;35.22;27.60;;;;;;;23.31;43.94;101843.22;21151956;27;20048;-60
2023/10/18 21:29:57;;;;;;;29.73;21.98;;;;;;;23.31;43.85;101850.75;21163933;27;20085;-59
2023/10/18 21:39:59;;;;;;;23.45;19.00;;;;;;;23.29;44.04;101839.88;21140752;28;20426;-59
2023/10/18 21:50:01;;;;;;;21.23;17.92;;;;;;;23.36;44.10;101847.13;21104485;28;20043;-60
2023/10/18 22:10:22;;;;;;;23.00;17.27;;;;;;;22.92;44.47;101800.13;21116266;28;20386;-59
2023/10/18 22:20:23;;;;;;;20.23;15.80;;;;;;;23.34;44.63;101878.97;21161045;27;20043;-59
2023/10/18 22:30:36;;;;;;;21.27;16.33;;;;;;;23.36;44.96;101875.91;21158645;28;20050;-59
2023/10/18 22:40:38;;;;;;;17.35;14.20;;;;;;;23.37;44.58;101885.13;21149524;27;20491;-60
2023/10/18 22:50:40;;;;;;;16.83;13.43;;;;;;;23.29;44.59;101876.16;21131819;28;20047;-58
2023/10/18 23:00:41;;;;;;;14.60;11.25;;;;;;;23.37;44.67;101893.50;21127507;28;20051;-59
2023/10/18 23:10:49;;;;;;;15.82;11.88;;;;;;;23.35;44.97;101899.38;21154472;28;20097;-60
2023/10/18 23:31:16;;;;;;;12.25;10.00;;;;;;;23.27;45.17;101902.69;21125819;28;20040;-60
2023/10/18 23:41:41;;;;;;;11.90;8.73;;;;;;;23.32;45.18;101923.13;21116655;28;20093;-61
2023/10/18 23:51:53;;;;;;;10.52;8.50;;;;;;;23.34;45.04;101925.63;21097613;28;20476;-59
